• Join FlightAware (Why Join?)
  • Login
  • US Flag 
11:20AM EDT


 

Airport Tracker/Info


-or-


 

Live Flight TrackerFlight Track Log ✈ UPS219 ✈ 28-Apr-2013 ✈ KPHL - LFPG / CDG

Flight Track Log - Related Links

Times and Time Zones

All times are in EDT time to prevent confusion due to time zone crossing. See the UPS219 flight status page for this flight to view local times or setup timezone preferences in your user account.

Time Position Orientation Groundspeed Altitude Reporting Facility
EDT Latitude Longitude Course Direction KTS MPH feet Rate Location/Type
08:16AM 39.8542 -75.2881 249° West 166 191 1,300  Level FlightAware ADS-B
08:16AM 39.8514 -75.2912 220° Southwest 165 190 1,500 1,560 Climbing FlightAware ADS-B
08:17AM 39.8415 -75.3008 217° Southwest 189 217 1,800 1,200 Climbing FlightAware ADS-B
08:17AM 39.8302 -75.3121 218° Southwest 213 245 2,100 2,040 Climbing FlightAware ADS-B
08:17AM 39.8154 -75.3281 220° Southwest 220 253 3,000 2,400 Climbing FlightAware ADS-B
08:17AM 39.8070 -75.3376 221° Southwest 233 268 3,300 1,320 Climbing FlightAware ADS-B
08:18AM 39.7999 -75.3435 213° Southwest 239 275 3,400 1,080 Climbing FlightAware ADS-B
08:18AM 39.7963 -75.3453 201° Southwest 244 281 3,500 1,980 Climbing FlightAware ADS-B
08:18AM 39.7931 -75.3464 195° South 246 283 3,600 1,680 Climbing FlightAware ADS-B
08:18AM 39.7886 -75.3471 187° South 250 288 3,700 1,680 Climbing FlightAware ADS-B
08:18AM 39.7850 -75.3470 179° South 252 290 3,800 2,400 Climbing FlightAware ADS-B
08:18AM 39.7771 -75.3452 170° South 253 291 4,100 2,700 Climbing FlightAware ADS-B
08:18AM 39.7726 -75.3432 161° South 254 292 4,300 2,220 Climbing FlightAware ADS-B
08:18AM 39.7689 -75.3408 154° Southeast 256 295 4,400 2,220 Climbing FlightAware ADS-B
08:18AM 39.7642 -75.3371 149° Southeast 258 297 4,600 2,520 Climbing FlightAware ADS-B
08:18AM 39.7612 -75.3340 142° Southeast 258 297 4,700 2,640 Climbing FlightAware ADS-B
08:18AM 39.7567 -75.3287 138° Southeast 257 296 5,000 3,240 Climbing FlightAware ADS-B
08:18AM 39.7524 -75.3216 128° Southeast 258 297 5,300 2,640 Climbing FlightAware ADS-B
08:18AM 39.7502 -75.3167 120° Southeast 259 298 5,400 2,220 Climbing FlightAware ADS-B
08:18AM 39.7485 -75.3117 114° Southeast 260 299 5,600 3,000 Climbing FlightAware ADS-B
08:18AM 39.7469 -75.3051 107° East 262 302 5,800 2,220 Climbing FlightAware ADS-B
08:19AM 39.7461 -75.2992 100° East 264 304 5,900 2,220 Climbing FlightAware ADS-B
08:19AM 39.7457 -75.2925 94° East 266 306 6,100 2,220 Climbing FlightAware ADS-B
08:19AM 39.7458 -75.2855 89° East 267 307 6,200 2,460 Climbing FlightAware ADS-B
08:19AM 39.7470 -75.2734 83° East 268 308 6,600 2,580 Climbing FlightAware ADS-B
08:19AM 39.7507 -75.2495 79° East 271 312 7,200 2,340 Climbing FlightAware ADS-B
08:19AM 39.7536 -75.2276 80° East 277 319 7,700 2,040 Climbing FlightAware ADS-B
08:20AM 39.7558 -75.2014 84° East 282 325 8,200 2,220 Climbing FlightAware ADS-B
08:20AM 39.7581 -75.1743 84° East 283 326 8,900 2,700 Climbing FlightAware ADS-B
08:20AM 39.7604 -75.1491 83° East 281 323 9,600 1,800 Climbing FlightAware ADS-B
08:21AM 39.7646 -75.0959 84° East 298 343 10,300 1,140 Climbing FlightAware ADS-B
08:21AM 39.7676 -75.0646 83° East 325 374 10,500 1,080 Climbing FlightAware ADS-B
08:21AM 39.7706 -75.0316 83° East 340 391 10,900 1,200 Climbing FlightAware ADS-B
08:22AM 39.7746 -74.9634 86° East 372 428 11,500 720 Climbing FlightAware ADS-B
08:22AM 39.7796 -74.8933 85° East 381 438 11,700 1,140 Climbing FlightAware ADS-B
08:23AM 39.7851 -74.8245 84° East 380 437 12,700 2,400 Climbing FlightAware ADS-B
08:23AM 39.7886 -74.7809 84° East 386 444 13,700 2,340 Climbing FlightAware ADS-B
08:24AM 39.7943 -74.7060 84° East 409 471 14,700 2,340 Climbing FlightAware ADS-B
08:24AM 39.8007 -74.6296 84° East 417 480 16,200 2,700 Climbing FlightAware ADS-B
08:25AM 39.8071 -74.5529 84° East 425 489 17,500 2,580 Climbing FlightAware ADS-B
08:25AM 39.8138 -74.4716 84° East 431 496 18,900 2,460 Climbing FlightAware ADS-B
08:25AM 39.8173 -74.4352 83° East 436 502 19,400 2,220 Climbing FlightAware ADS-B
08:26AM 39.8240 -74.4022 75° East 438 504 19,900 2,280 Climbing FlightAware ADS-B
08:26AM 39.8275 -74.3906 69° East 437 503 20,100 2,160 Climbing FlightAware ADS-B
08:26AM 39.8422 -74.3580 60° Northeast 436 502 20,600 2,220 Climbing FlightAware ADS-B
08:26AM 39.8579 -74.3253 58° Northeast 441 507 21,200 2,160 Climbing FlightAware ADS-B
08:27AM 39.8901 -74.2521 60° Northeast 448 516 22,300 1,740 Climbing FlightAware ADS-B
08:27AM 39.9240 -74.1802 58° Northeast 455 524 23,000 660 Climbing FlightAware ADS-B
08:28AM 39.9591 -74.1087 57° Northeast 458 527 23,000 180 Level FlightAware ADS-B
08:28AM 39.9978 -74.0304 57° Northeast 457 526 23,200 1,260 Climbing FlightAware ADS-B
08:29AM 40.0341 -73.9565 57° Northeast 461 531 24,400 2,100 Climbing FlightAware ADS-B
08:29AM 40.0719 -73.8796 57° Northeast 467 537 25,500 1,800 Climbing FlightAware ADS-B
08:30AM 40.1111 -73.7996 57° Northeast 475 547 26,400 1,500 Climbing FlightAware ADS-B
08:30AM 40.1501 -73.7199 57° Northeast 483 556 27,200 1,860 Climbing FlightAware ADS-B
08:31AM 40.1878 -73.6424 57° Northeast 481 554 28,400 2,160 Climbing FlightAware ADS-B
08:31AM 40.2210 -73.5630 61° Northeast 485 558 29,500 1,920 Climbing FlightAware ADS-B
08:32AM 40.2493 -73.4825 65° Northeast 485 558 30,400 1,740 Climbing FlightAware ADS-B
08:32AM 40.2792 -73.3915 67° East 485 558 31,400 1,680 Climbing FlightAware ADS-B
08:33AM 40.3080 -73.3009 67° East 485 558 32,300 1,440 Climbing FlightAware ADS-B
08:34AM 40.3356 -73.2138 67° East 485 558 33,000 660 Climbing FlightAware ADS-B
08:34AM 40.3615 -73.1317 67° East 489 563 33,000  Level FlightAware ADS-B
08:35AM 40.3904 -73.0388 68° East 491 565 33,000  Level FlightAware ADS-B
08:35AM 40.4172 -72.9526 68° East 489 563 33,000  Level FlightAware ADS-B
08:36AM 40.4450 -72.8632 68° East 486 559 33,000  Level FlightAware ADS-B
08:36AM 40.4713 -72.7784 68° East 485 558 33,000  Level FlightAware ADS-B
08:37AM 40.5022 -72.6784 68° East 484 557 33,000  Level FlightAware ADS-B
08:37AM 40.5299 -72.5882 68° East 482 555 33,000  Level FlightAware ADS-B
08:38AM 40.5550 -72.5070 68° East 481 554 33,000  Level FlightAware ADS-B
08:38AM 40.5808 -72.4228 68° East 482 555 33,000  Level FlightAware ADS-B
08:39AM 40.6089 -72.3315 68° East 482 555 33,000  Level FlightAware ADS-B
08:40AM 40.6389 -72.2327 68° East 482 555 33,000  Level FlightAware ADS-B
08:40AM 40.6640 -72.1500 68° East 483 556 33,000  Level FlightAware ADS-B
08:41AM 40.6890 -72.0673 68° East 483 556 33,000  Level FlightAware ADS-B
08:41AM 40.7143 -71.9837 68° East 484 557 33,000  Level FlightAware ADS-B
08:42AM 40.7370 -71.9090 68° East 484 557 33,000  Level FlightAware
08:42AM 40.7449 -71.8817 69° East 484 557 33,000  Level FlightAware ADS-B
08:42AM 40.7731 -71.7878 68° East 485 558 33,000  Level FlightAware ADS-B
08:43AM 40.8046 -71.6821 68° East 485 558 33,000  Level FlightAware ADS-B
08:43AM 40.8305 -71.5947 69° East 486 559 33,000  Level FlightAware ADS-B
08:44AM 40.8771 -71.4714 63° Northeast 480 552 33,000  Level FlightAware ADS-B
08:45AM 40.9500 -71.3660 47° Northeast 459 528 33,000  Level FlightAware
08:46AM 41.0110 -71.2920 42° Northeast 458 527 33,000  Level FlightAware
08:46AM 41.0740 -71.2150 43° Northeast 457 526 33,000  Level FlightAware
08:47AM 41.1440 -71.1290 43° Northeast 458 527 33,000  Level FlightAware
08:48AM 41.2140 -71.0440 42° Northeast 457 526 33,000  Level FlightAware
08:49AM 41.2760 -70.9680 43° Northeast 457 526 33,000  Level FlightAware
08:49AM 41.3410 -70.8890 42° Northeast 457 526 33,000  Level FlightAware
08:50AM 41.3970 -70.8200 43° Northeast 456 525 33,000  Level FlightAware
08:51AM 41.4700 -70.7300 43° Northeast 450 518 33,000  Level FlightAware
08:51AM 41.5180 -70.6700 43° Northeast 449 517 33,000  Level FlightAware
08:52AM 41.5990 -70.5690 43° Northeast 448 516 33,000  Level FlightAware
08:53AM 41.6560 -70.4980 43° Northeast 447 514 33,000  Level FlightAware
08:54AM 41.7260 -70.4070 44° Northeast 451 519 33,000  Level FlightAware
08:54AM 41.7820 -70.3360 43° Northeast 450 518 33,000  Level FlightAware
08:55AM 41.8490 -70.2490 44° Northeast 447 514 33,000  Level FlightAware
08:56AM 41.9160 -70.1620 44° Northeast 444 511 33,000  Level FlightAware
08:56AM 41.9730 -70.0890 44° Northeast 442 509 33,000  Level FlightAware
08:57AM 42.0350 -70.0080 44° Northeast 435 501 33,000  Level FlightAware
08:58AM 42.1020 -69.9200 44° Northeast 434 499 33,000  Level FlightAware
08:58AM 42.1590 -69.8450 44° Northeast 433 498 33,000  Level FlightAware
08:59AM 42.2240 -69.7590 44° Northeast 432 497 33,000  Level FlightAware
09:00AM 42.2820 -69.6830 44° Northeast 431 496 33,000  Level FlightAware
09:01AM 42.3470 -69.5970 44° Northeast 434 499 33,000  Level FlightAware
09:01AM 42.4020 -69.5240 44° Northeast 434 499 33,000  Level FlightAware
09:02AM 42.4620 -69.4450 44° Northeast 432 497 33,000  Level FlightAware
09:03AM 42.5260 -69.3590 45° Northeast 432 497 33,000  Level FlightAware
09:03AM 42.5840 -69.2820 44° Northeast 432 497 33,000  Level FlightAware
09:04AM 42.6390 -69.2070 45° Northeast 432 497 33,000  Level FlightAware
09:05AM 42.7030 -69.1210 45° Northeast 432 497 33,000  Level FlightAware
09:06AM 42.7720 -69.0280 45° Northeast 433 498 33,000  Level FlightAware
09:06AM 42.8370 -68.9400 45° Northeast 434 499 33,000  Level FlightAware
09:07AM 42.8940 -68.8630 45° Northeast 434 499 33,000  Level FlightAware
09:08AM 42.9580 -68.7770 45° Northeast 433 498 33,000  Level FlightAware
09:08AM 43.0120 -68.7020 45° Northeast 433 498 33,000  Level FlightAware
09:09AM 43.0930 -68.5910 45° Northeast 433 498 33,000  Level FlightAware
09:10AM 43.1410 -68.5250 45° Northeast 433 498 33,000  Level FlightAware
09:11AM 43.1890 -68.4590 45° Northeast 433 498 33,000  Level FlightAware
09:12AM 43.2870 -68.3250 45° Northeast 430 495 33,000  Level FlightAware
09:12AM 43.3340 -68.2590 46° Northeast 430 495 33,000  Level FlightAware
09:13AM 43.3940 -68.1770 45° Northeast 430 495 33,000  Level FlightAware
09:14AM 43.4420 -68.1110 45° Northeast 430 495 33,000  Level FlightAware
09:14AM 43.4900 -68.0450 45° Northeast 430 495 33,000  Level FlightAware
09:16AM 43.6510 -67.8140 46° Northeast 427 491 33,000  Level FlightAware
09:17AM 43.7490 -67.6760 45° Northeast 428 493 33,000  Level FlightAware
09:18AM 43.8540 -67.5270 46° Northeast 427 491 33,000  Level FlightAware
09:19AM 43.9520 -67.3860 46° Northeast 436 502 33,000  Level FlightAware
09:20AM 44.0230 -67.2840 46° Northeast 430 495 33,000  Level FlightAware
09:22AM 44.1550 -67.0930 46° Northeast 438 504 33,000  Level FlightAware
09:23AM 44.2600 -66.9410 46° Northeast 433 498 33,000  Level FlightAware
09:24AM 44.3590 -66.7960 46° Northeast 433 498 33,000  Level FlightAware
09:25AM 44.4560 -66.6540 46° Northeast 433 498 33,000  Level FlightAware
09:27AM 44.5700 -66.4860 46° Northeast 434 499 33,000  Level FlightAware
09:28AM 44.6340 -66.3900 47° Northeast 435 501 33,000  Level FlightAware
09:28AM 44.6890 -66.3080 47° Northeast 441 507 33,000  Level FlightAware
09:29AM 44.7460 -66.2240 46° Northeast 442 509 33,000  Level FlightAware
09:30AM 44.8090 -66.1290 47° Northeast 443 510 33,000  Level FlightAware
09:30AM 44.8580 -66.0560 47° Northeast 445 512 33,000  Level FlightAware
09:31AM 44.9280 -65.9500 47° Northeast 445 512 33,000  Level FlightAware
09:32AM 44.9840 -65.8660 47° Northeast 447 514 33,000  Level FlightAware
09:32AM 45.0410 -65.7790 47° Northeast 447 514 33,000  Level FlightAware
09:33AM 45.1050 -65.6820 47° Northeast 450 518 33,000  Level FlightAware
09:34AM 45.1630 -65.5930 47° Northeast 450 518 33,000  Level FlightAware
09:35AM 45.2180 -65.5090 47° Northeast 451 519 33,000  Level FlightAware
09:35AM 45.2670 -65.4340 47° Northeast 452 520 33,000  Level FlightAware
09:36AM 45.3390 -65.3230 47° Northeast 454 522 33,000  Level FlightAware
09:37AM 45.4060 -65.2190 47° Northeast 455 524 33,000  Level FlightAware
09:37AM 45.4640 -65.1280 48° Northeast 456 525 33,000  Level FlightAware
09:38AM 45.5290 -65.0280 47° Northeast 456 525 33,000  Level FlightAware
09:39AM 45.5860 -64.9390 48° Northeast 456 525 33,000  Level FlightAware
09:39AM 45.6410 -64.8520 48° Northeast 458 527 33,000  Level FlightAware
09:40AM 45.6960 -64.7660 48° Northeast 458 527 33,000  Level FlightAware
09:41AM 45.7570 -64.6690 48° Northeast 458 527 33,000  Level FlightAware
09:42AM 45.8190 -64.5720 47° Northeast 458 527 33,000  Level FlightAware
09:42AM 45.8820 -64.4710 48° Northeast 458 527 33,000  Level FlightAware
09:43AM 45.9300 -64.3950 48° Northeast 458 527 33,000  Level FlightAware
09:44AM 45.9940 -64.2920 48° Northeast 459 528 33,000  Level FlightAware
09:44AM 46.0420 -64.2150 48° Northeast 459 528 33,000  Level FlightAware
09:45AM 46.0900 -64.1380 48° Northeast 459 528 33,000  Level FlightAware
09:46AM 46.1510 -64.0410 48° Northeast 459 528 33,000  Level FlightAware
09:46AM 46.1990 -63.9630 48° Northeast 459 528 33,000  Level FlightAware
09:47AM 46.2470 -63.8860 48° Northeast 459 528 33,000  Level FlightAware
09:48AM 46.2840 -63.8280 47° Northeast 459 528 33,000  Level FlightAware
09:48AM 46.3320 -63.7500 48° Northeast 459 528 33,000  Level FlightAware
09:49AM 46.3800 -63.6720 48° Northeast 459 528 33,000  Level FlightAware
09:50AM 46.4280 -63.5940 48° Northeast 459 528 33,000  Level FlightAware
09:50AM 46.4890 -63.4970 48° Northeast 459 528 33,000  Level FlightAware
09:51AM 46.5370 -63.4190 48° Northeast 459 528 33,000  Level FlightAware
09:52AM 46.5850 -63.3410 48° Northeast 459 528 33,000  Level FlightAware
09:52AM 46.6340 -63.2630 48° Northeast 459 528 33,000  Level FlightAware
09:53AM 46.6820 -63.1850 48° Northeast 459 528 33,000  Level FlightAware
09:54AM 46.8333 -62.8667 48° Northeast 470 541 33,000  Level Gander Center
09:54AM 46.8667 -62.8167 46° Northeast 470 541 33,000  Level Gander Center
09:55AM 46.9500 -62.6833 47° Northeast 470 541 33,000  Level Gander Center
09:55AM 46.9833 -62.6333 46° Northeast 470 541 33,000  Level Moncton Center
09:56AM 47.0667 -62.4833 51° Northeast 470 541 33,000  Level Moncton Center
09:57AM 47.1500 -62.3333 51° Northeast 480 552 33,000  Level Moncton Center
09:58AM 47.2500 -62.1833 45° Northeast 480 552 33,000  Level Moncton Center
09:59AM 47.3167 -62.0333 57° Northeast 490 564 33,000  Level Moncton Center
10:00AM 47.4167 -61.8667 48° Northeast 480 552 33,000  Level Moncton Center
10:01AM 47.5000 -61.7167 51° Northeast 480 552 33,000  Level Moncton Center
10:02AM 47.5833 -61.5667 50° Northeast 480 552 33,000  Level Moncton Center
10:04AM 47.7333 -61.3333 46° Northeast 480 552 33,000  Level Gander Center
10:05AM 47.8333 -61.1000 57° Northeast 480 552 33,000  Level Moncton Center
10:07AM 47.9833 -60.8500 48° Northeast 480 552 33,000  Level Gander Center
10:07AM 48.0167 -60.8000 45° Northeast 480 552 33,000  Level Moncton Center
10:08AM 48.0833 -60.6333 59° Northeast 480 552 33,000  Level Moncton Center
10:09AM 48.1667 -60.5000 47° Northeast 480 552 33,000  Level Moncton Center
10:10AM 48.2500 -60.3833 43° Northeast 490 564 33,000  Level Gander Center
10:10AM 48.2667 -60.3167 69° East 490 564 33,000  Level Moncton Center
10:11AM 48.3500 -60.1667 50° Northeast 490 564 33,000  Level Moncton Center
10:12AM 48.4333 -60.0000 53° Northeast 490 564 33,000  Level Moncton Center
10:13AM 48.4833 -59.9000 53° Northeast 490 564 33,000  Level Gander Center
10:13AM 48.5167 -59.8500 45° Northeast 490 564 33,000  Level Moncton Center
10:14AM 48.6000 -59.6833 53° Northeast 490 564 33,000  Level Moncton Center
10:15AM 48.6833 -59.5333 50° Northeast 500 575 33,000  Level Moncton Center
10:16AM 48.7833 -59.3667 48° Northeast 500 575 33,000  Level Moncton Center
10:17AM 48.8667 -59.1833 55° Northeast 500 575 33,000  Level Moncton Center
10:18AM 48.9500 -59.0167 53° Northeast 500 575 33,000  Level Moncton Center
10:19AM 49.0167 -58.8500 59° Northeast 500 575 33,000  Level Moncton Center
10:20AM 49.1167 -58.6833 47° Northeast 500 575 33,000  Level Moncton Center
10:21AM 49.1833 -58.5667 49° Northeast 510 587 33,000  Level Gander Center
10:22AM 49.2667 -58.4167 50° Northeast 510 587 33,000  Level Gander Center
10:22AM 49.3000 -58.3333 58° Northeast 510 587 33,000  Level Moncton Center
10:23AM 49.3667 -58.1667 58° Northeast 510 587 33,000  Level Moncton Center
10:24AM 49.4667 -58.0000 47° Northeast 510 587 33,000  Level Moncton Center
10:25AM 49.5167 -57.8833 57° Northeast 510 587 33,000  Level Gander Center
10:26AM 49.6167 -57.7167 47° Northeast 510 587 33,000  Level Gander Center
10:27AM 49.6833 -57.5667 55° Northeast 510 587 33,000  Level Gander Center
10:28AM 49.8000 -57.3667 48° Northeast 510 587 33,000  Level Gander Center
10:29AM 49.9000 -57.2333 41° Northeast 520 598 33,000  Level Gander Center
10:30AM 50.0167 -57.0667 43° Northeast 520 598 33,000  Level Gander Center
10:31AM 50.1000 -56.9000 52° Northeast 520 598 33,000  Level Gander Center
10:32AM 50.2000 -56.7333 47° Northeast 510 587 33,000  Level Gander Center
10:33AM 50.3167 -56.6000 36° Northeast 520 598 33,000  Level Gander Center
10:33AM 50.3333 -56.5167 73° East 510 587 33,000  Level Moncton Center
10:34AM 50.4333 -56.3667 44° Northeast 510 587 33,000  Level Moncton Center
10:35AM 50.5333 -56.2167 44° Northeast 520 598 33,000  Level Moncton Center
10:36AM 50.6000 -56.0833 52° Northeast 520 598 33,000  Level Gander Center
10:37AM 50.7000 -55.9500 40° Northeast 520 598 33,000  Level Gander Center
10:38AM 50.8167 -55.7667 45° Northeast 520 598 33,000  Level Gander Center
10:39AM 50.9000 -55.6000 52° Northeast 520 598 33,000  Level Gander Center
10:40AM 51.0000 -55.4333 46° Northeast 520 598 33,000  Level Gander Center
10:41AM 51.0667 -55.3167 48° Northeast 530 610 33,000 180 Level Gander Center
10:42AM 51.1667 -55.1500 46° Northeast 520 598 33,400 900 Climbing Gander Center
10:43AM 51.2667 -54.9667 49° Northeast 520 598 34,900 780 Climbing Gander Center
10:44AM 51.3667 -54.8167 43° Northeast 530 610 35,000 60 Climbing Gander Center
10:44AM 51.4167 -54.7667 32° Northeast 530 610 35,000 360 Level Gander Center
10:45AM 51.5000 -54.5833 54° Northeast 520 598 35,500  Climbing Gander Center
10:46AM 51.5667 -54.4667 47° Northeast 520 598 35,000 -300 Descending Gander Center
10:47AM 51.6667 -54.3000 46° Northeast 520 598 35,000  Level Gander Center
10:47AM 51.7000 -54.2333 51° Northeast 520 598 35,000  Level Gander Center
10:48AM 51.8000 -54.0500 49° Northeast 520 598 35,000  Level Gander Center
10:50AM 51.9500 -53.7500 51° Northeast 540 621 35,000  Level Gander Center
10:51AM 52.0667 -53.6000 38° Northeast 530 610 35,000  Level Gander Center
10:51AM 52.1167 -53.4833 55° Northeast 550 633 35,000  Level Gander Center
10:52AM 52.1833 -53.3667 47° Northeast 520 598 35,000  Level Gander Center
10:53AM 52.2500 -53.2333 51° Northeast 520 598 35,000  Level Gander Center
10:54AM 52.2167 -53.3667 47° Northeast 510 587 35,000  Level ETMS Enhanced Traffic Management System
10:54AM 52.3667 -53.0333 47° Northeast 520 598 35,000  Level Gander Center
10:57AM 52.5527 -52.7474 46° Northeast  Level FlightAware Approximate
11:04AM 53.1904 -51.5778 48° Northeast  Level FlightAware Approximate
11:05AM 53.2803 -51.4075 49° Northeast  Level FlightAware Approximate
11:06AM 53.3700 -51.2365 49° Northeast  Level FlightAware Approximate
11:07AM 53.4594 -51.0647 49° Northeast  Level FlightAware Approximate
11:08AM 53.5485 -50.8923 49° Northeast  Level FlightAware Approximate
11:09AM 53.6375 -50.7191 49° Northeast  Level FlightAware Approximate
11:10AM 53.7261 -50.5451 49° Northeast  Level FlightAware Approximate
11:11AM 53.8145 -50.3705 49° Northeast  Level FlightAware Approximate
11:12AM 53.9027 -50.1951 49° Northeast  Level FlightAware Approximate
11:13AM 53.9906 -50.0190 50° Northeast  Level FlightAware Approximate
11:14AM 54.0640 -49.8245 58° Northeast  Level FlightAware Approximate
11:15AM 54.1353 -49.6272 58° Northeast  Level FlightAware Approximate
11:16AM 54.2063 -49.4292 58° Northeast  Level FlightAware Approximate
11:17AM 54.2770 -49.2306 59° Northeast  Level FlightAware Approximate
11:18AM 54.3474 -49.0312 59° Northeast  Level FlightAware Approximate
11:19AM 54.4174 -48.8312 60° Northeast  Level FlightAware Approximate
11:20AM 54.4860 -48.6295 60° Northeast  Level FlightAware Approximate
11:21AM 54.5543 -48.4270 60° Northeast  Level FlightAware Approximate
11:22AM 54.6223 -48.2239 60° Northeast  Level FlightAware Approximate
11:23AM 54.6899 -48.0201 60° Northeast  Level FlightAware Approximate
11:24AM 54.7572 -47.8156 60° Northeast  Level FlightAware Approximate
11:25AM 54.8243 -47.6106 60° Northeast  Level FlightAware Approximate
11:26AM 54.8927 -47.4066 60° Northeast  Level FlightAware Approximate
11:27AM 54.9608 -47.2019 60° Northeast  Level FlightAware Approximate
11:28AM 55.0285 -46.9965 60° Northeast  Level FlightAware Approximate
11:29AM 55.0959 -46.7904 60° Northeast  Level FlightAware Approximate
11:30AM 55.1630 -46.5836 60° Northeast  Level FlightAware Approximate
11:31AM 55.2295 -46.3760 61° Northeast  Level FlightAware Approximate
11:32AM 55.2951 -46.1671 61° Northeast  Level FlightAware Approximate
11:33AM 55.3604 -45.9576 61° Northeast  Level FlightAware Approximate
11:34AM 55.4253 -45.7473 61° Northeast  Level FlightAware Approximate
11:35AM 55.4899 -45.5364 62° Northeast  Level FlightAware Approximate
11:36AM 55.5540 -45.3247 62° Northeast  Level FlightAware Approximate
11:37AM 55.6179 -45.1124 62° Northeast  Level FlightAware Approximate
11:38AM 55.6813 -44.8994 62° Northeast  Level FlightAware Approximate
11:39AM 55.7444 -44.6857 62° Northeast  Level FlightAware Approximate
11:40AM 55.8071 -44.4713 62° Northeast  Level FlightAware Approximate
11:41AM 55.8694 -44.2562 63° Northeast  Level FlightAware Approximate
11:42AM 55.9314 -44.0405 63° Northeast  Level FlightAware Approximate
11:43AM 55.9932 -43.8242 63° Northeast  Level FlightAware Approximate
11:44AM 56.0549 -43.6075 63° Northeast  Level FlightAware Approximate
11:45AM 56.1162 -43.3901 63° Northeast  Level FlightAware Approximate
11:46AM 56.1771 -43.1720 63° Northeast  Level FlightAware Approximate
11:47AM 56.2376 -42.9533 63° Northeast  Level FlightAware Approximate
11:48AM 56.2978 -42.7338 64° Northeast  Level FlightAware Approximate
11:49AM 56.3576 -42.5136 64° Northeast  Level FlightAware Approximate
11:50AM 56.4170 -42.2928 64° Northeast  Level FlightAware Approximate
11:51AM 56.4759 -42.0713 64° Northeast  Level FlightAware Approximate
11:52AM 56.5345 -41.8490 64° Northeast  Level FlightAware Approximate
11:53AM 56.5927 -41.6261 65° Northeast  Level FlightAware Approximate
11:54AM 56.6505 -41.4025 65° Northeast  Level FlightAware Approximate
11:55AM 56.7079 -41.1783 65° Northeast  Level FlightAware Approximate
11:56AM 56.7649 -40.9533 65° Northeast  Level FlightAware Approximate
11:57AM 56.8214 -40.7277 65° Northeast  Level FlightAware Approximate
11:58AM 56.8776 -40.5013 65° Northeast  Level FlightAware Approximate
11:59AM 56.9334 -40.2743 66° East  Level FlightAware Approximate
12:00PM 56.9887 -40.0467 66° East  Level FlightAware Approximate
12:01PM 57.0263 -39.8074 76° East  Level FlightAware Approximate
12:02PM 57.0589 -39.5649 76° East  Level FlightAware Approximate
12:03PM 57.0911 -39.3219 76° East  Level FlightAware Approximate
12:04PM 57.1228 -39.0786 76° East  Level FlightAware Approximate
12:05PM 57.1540 -38.8348 77° East  Level FlightAware Approximate
12:06PM 57.1848 -38.5906 77° East  Level FlightAware Approximate
12:07PM 57.2151 -38.3461 77° East  Level FlightAware Approximate
12:08PM 57.2449 -38.1011 77° East  Level FlightAware Approximate
12:09PM 57.2742 -37.8557 77° East  Level FlightAware Approximate
12:10PM 57.3031 -37.6099 78° East  Level FlightAware Approximate
12:11PM 57.3314 -37.3638 78° East  Level FlightAware Approximate
12:12PM 57.3599 -37.1175 77° East  Level FlightAware Approximate
12:13PM 57.3892 -36.8713 77° East  Level FlightAware Approximate
12:14PM 57.4180 -36.6248 78° East  Level FlightAware Approximate
12:15PM 57.4463 -36.3778 78° East  Level FlightAware Approximate
12:16PM 57.4742 -36.1305 78° East  Level FlightAware Approximate
12:17PM 57.5015 -35.8828 78° East  Level FlightAware Approximate
12:18PM 57.5284 -35.6347 78° East  Level FlightAware Approximate
12:19PM 57.5547 -35.3863 79° East  Level FlightAware Approximate
12:20PM 57.5806 -35.1375 79° East  Level FlightAware Approximate
12:21PM 57.6060 -34.8884 79° East  Level FlightAware Approximate
12:22PM 57.6309 -34.6389 79° East  Level FlightAware Approximate
12:23PM 57.6553 -34.3891 80° East  Level FlightAware Approximate
12:24PM 57.6793 -34.1390 80° East  Level FlightAware Approximate
12:25PM 57.7027 -33.8885 80° East  Level FlightAware Approximate
12:26PM 57.7256 -33.6377 80° East  Level FlightAware Approximate
12:27PM 57.7481 -33.3866 80° East  Level FlightAware Approximate
12:28PM 57.7700 -33.1351 81° East  Level FlightAware Approximate
12:29PM 57.7915 -32.8834 81° East  Level FlightAware Approximate
12:30PM 57.8124 -32.6314 81° East  Level FlightAware Approximate
12:31PM 57.8328 -32.3791 81° East  Level FlightAware Approximate
12:32PM 57.8528 -32.1265 81° East  Level FlightAware Approximate
12:33PM 57.8722 -31.8736 82° East  Level FlightAware Approximate
12:34PM 57.8911 -31.6205 82° East  Level FlightAware Approximate
12:35PM 57.9096 -31.3671 82° East  Level FlightAware Approximate
12:36PM 57.9275 -31.1134 82° East  Level FlightAware Approximate
12:37PM 57.9449 -30.8595 83° East  Level FlightAware Approximate
12:38PM 57.9618 -30.6054 83° East  Level FlightAware Approximate
12:39PM 57.9782 -30.3510 83° East  Level FlightAware Approximate
12:40PM 57.9941 -30.0964 83° East  Level FlightAware Approximate
12:41PM 57.9903 -29.8416 96° East  Level FlightAware Approximate
12:42PM 57.9744 -29.5870 97° East  Level FlightAware Approximate
12:43PM 57.9579 -29.3327 97° East  Level FlightAware Approximate
12:44PM 57.9410 -29.0786 97° East  Level FlightAware Approximate
12:45PM 57.9235 -28.8247 97° East  Level FlightAware Approximate
12:46PM 57.9055 -28.5711 97° East  Level FlightAware Approximate
12:47PM 57.8870 -28.3177 98° East  Level FlightAware Approximate
12:48PM 57.8680 -28.0646 98° East  Level FlightAware Approximate
12:49PM 57.8485 -27.8118 98° East  Level FlightAware Approximate
12:50PM 57.8285 -27.5593 98° East  Level FlightAware Approximate
12:51PM 57.8080 -27.3070 99° East  Level FlightAware Approximate
12:52PM 57.7870 -27.0550 99° East  Level FlightAware Approximate
12:53PM 57.7656 -26.8034 99° East  Level FlightAware Approximate
12:54PM 57.7436 -26.5520 99° East  Level FlightAware Approximate
12:55PM 57.7211 -26.3009 99° East  Level FlightAware Approximate
12:56PM 57.6981 -26.0502 100° East  Level FlightAware Approximate
12:57PM 57.6746 -25.7997 100° East  Level FlightAware Approximate
12:58PM 57.6506 -25.5496 100° East  Level FlightAware Approximate
12:59PM 57.6262 -25.2999 100° East  Level FlightAware Approximate
01:00PM 57.6012 -25.0504 100° East  Level FlightAware Approximate
01:01PM 57.5757 -24.8014 101° East  Level FlightAware Approximate
01:02PM 57.5498 -24.5526 101° East  Level FlightAware Approximate
01:03PM 57.5234 -24.3043 101° East  Level FlightAware Approximate
01:04PM 57.4965 -24.0562 101° East  Level FlightAware Approximate
01:05PM 57.4691 -23.8086 102° East  Level FlightAware Approximate
01:06PM 57.4412 -23.5613 102° East  Level FlightAware Approximate
01:07PM 57.4128 -23.3144 102° East  Level FlightAware Approximate
01:08PM 57.3840 -23.0679 102° East  Level FlightAware Approximate
01:09PM 57.3546 -22.8218 102° East  Level FlightAware Approximate
01:10PM 57.3262 -22.5756 102° East  Level FlightAware Approximate
01:11PM 57.2976 -22.3296 102° East  Level FlightAware Approximate
01:12PM 57.2685 -22.0839 102° East  Level FlightAware Approximate
01:13PM 57.2389 -21.8387 102° East  Level FlightAware Approximate
01:14PM 57.2088 -21.5939 103° East  Level FlightAware Approximate
01:15PM 57.1782 -21.3494 103° East  Level FlightAware Approximate
01:16PM 57.1472 -21.1054 103° East  Level FlightAware Approximate
01:17PM 57.1157 -20.8618 103° East  Level FlightAware Approximate
01:18PM 57.0837 -20.6186 104° East  Level FlightAware Approximate
01:19PM 57.0513 -20.3759 104° East  Level FlightAware Approximate
01:20PM 57.0184 -20.1335 104° East  Level FlightAware Approximate
01:21PM 56.9780 -19.8957 111° Southeast  Level FlightAware Approximate
01:22PM 56.9285 -19.6636 111° Southeast  Level FlightAware Approximate
01:23PM 56.8785 -19.4321 111° Southeast  Level FlightAware Approximate
01:24PM 56.8282 -19.2012 112° Southeast  Level FlightAware Approximate
01:25PM 56.7774 -18.9710 112° Southeast  Level FlightAware Approximate
01:26PM 56.7262 -18.7413 112° Southeast  Level FlightAware Approximate
01:27PM 56.6746 -18.5123 112° Southeast  Level FlightAware Approximate
01:28PM 56.6226 -18.2840 112° Southeast  Level FlightAware Approximate
01:29PM 56.5701 -18.0562 113° Southeast  Level FlightAware Approximate
01:30PM 56.5173 -17.8291 113° Southeast  Level FlightAware Approximate
01:31PM 56.4640 -17.6026 113° Southeast  Level FlightAware Approximate
01:32PM 56.4103 -17.3768 113° Southeast  Level FlightAware Approximate
01:33PM 56.3562 -17.1516 113° Southeast  Level FlightAware Approximate
01:33PM 54.9690 -13.2020 114° Southeast 567 652 35,000  Level FlightAware
01:34PM 56.3017 -16.9270 114° Southeast  Level FlightAware Approximate
01:34PM 54.9170 -13.0360 119° Southeast 566 651 35,000  Level FlightAware
01:35PM 54.8660 -12.8710 118° Southeast 566 651 35,000  Level FlightAware
01:35PM 54.8260 -12.7430 118° Southeast 566 651 35,000  Level FlightAware
01:36PM 54.7770 -12.5850 118° Southeast 566 651 35,000  Level FlightAware
01:37PM 54.7280 -12.4310 119° Southeast 565 650 35,000  Level FlightAware
01:37PM 54.6710 -12.2510 119° Southeast 564 649 35,000  Level FlightAware
01:38PM 54.5830 -11.9790 119° Southeast 564 649 35,000  Level FlightAware
01:39PM 54.5330 -11.8220 119° Southeast 563 648 35,000  Level FlightAware
01:40PM 54.4750 -11.6450 119° Southeast 562 647 35,000  Level FlightAware
01:41PM 54.4250 -11.4930 119° Southeast 562 647 35,000  Level FlightAware
01:41PM 54.3740 -11.3390 120° Southeast 562 647 35,000  Level FlightAware
01:42PM 54.3160 -11.1650 120° Southeast 559 643 35,000  Level FlightAware
01:43PM 54.2630 -11.0080 120° Southeast 556 640 35,000  Level FlightAware
01:43PM 54.2050 -10.8370 120° Southeast 555 639 35,000  Level FlightAware
01:44PM 54.1540 -10.6860 120° Southeast 554 638 35,000  Level FlightAware
01:45PM 54.1100 -10.5560 120° Southeast 557 641 35,000  Level FlightAware
01:45PM 54.0440 -10.3650 120° Southeast 552 635 35,000  Level FlightAware
01:46PM 53.9910 -10.2110 120° Southeast 551 634 35,000  Level FlightAware
01:47PM 53.9320 -10.0440 121° Southeast 550 633 35,000  Level FlightAware
01:48PM 53.8810 -9.8970 120° Southeast 550 633 35,000  Level FlightAware
01:48PM 53.8270 -9.7460 121° Southeast 549 632 35,000  Level FlightAware
01:49PM 53.7690 -9.5810 121° Southeast 548 631 35,000  Level FlightAware
01:50PM 53.7140 -9.4270 121° Southeast 553 636 35,000  Level FlightAware
01:50PM 53.6550 -9.2640 121° Southeast 552 635 35,000  Level FlightAware
01:51PM 53.6030 -9.1190 121° Southeast 551 634 35,000 -1,260 Level FlightAware
01:52PM 53.5528 -8.9819 121° Southeast 460 529 33,500  Descending FlightAware UK
01:52PM 53.5480 -8.9700 121° Southeast 550 633 35,000  Climbing FlightAware
01:52PM 53.5210 -8.8945 121° Southeast 462 532 33,500 -2,520 Descending FlightAware UK
01:52PM 53.4970 -8.8292 122° Southeast 462 532 33,500 3,300 Level FlightAware UK
01:52PM 53.4890 -8.8070 122° Southeast 550 633 35,000  Climbing FlightAware
01:53PM 53.4651 -8.7419 122° Southeast 460 529 33,500 -2,760 Descending FlightAware UK
01:53PM 53.4409 -8.6767 122° Southeast 462 532 33,500 3,600 Level FlightAware UK
01:53PM 53.4350 -8.6620 122° Southeast 547 629 35,000  Climbing FlightAware
01:53PM 53.4086 -8.5911 122° Southeast 462 532 33,500 -2,580 Descending FlightAware UK
01:54PM 53.3845 -8.5268 122° Southeast 460 529 33,500 3,180 Level FlightAware UK
01:54PM 53.3750 -8.5000 122° Southeast 547 629 35,000  Climbing FlightAware
01:54PM 53.3442 -8.4185 122° Southeast 460 529 33,500 -2,400 Descending FlightAware UK
01:55PM 53.3202 -8.3542 122° Southeast 460 529 33,500 3,600 Level FlightAware UK
01:55PM 53.3150 -8.3400 122° Southeast 546 628 35,000  Climbing FlightAware
01:55PM 53.2882 -8.2682 122° Southeast 462 532 33,500  Descending FlightAware UK
01:55PM 53.2760 -8.2350 122° Southeast 544 626 35,000  Climbing FlightAware
01:55PM 53.2479 -8.1614 122° Southeast 462 532 33,500  Descending FlightAware UK
01:56PM 53.2290 -8.1100 122° Southeast 542 624 35,000  Climbing FlightAware
01:56PM 53.1997 -8.0338 122° Southeast 460 529 33,500 -2,520 Descending FlightAware UK
01:56PM 53.1755 -7.9702 122° Southeast 460 529 33,500 3,300 Level FlightAware UK
01:56PM 53.1690 -7.9520 122° Southeast 542 624 35,000  Climbing FlightAware
01:57PM 53.1434 -7.8858 122° Southeast 460 529 33,500 -2,760 Descending FlightAware UK
01:57PM 53.1194 -7.8229 122° Southeast 460 529 33,500 3,600 Level FlightAware UK
01:57PM 53.1160 -7.8120 122° Southeast 539 620 35,000  Climbing FlightAware
01:57PM 53.0874 -7.7391 122° Southeast 460 529 33,500 -2,580 Descending FlightAware UK
01:58PM 53.0632 -7.6765 123° Southeast 460 529 33,500 3,900 Level FlightAware UK
01:58PM 53.0620 -7.6720 123° Southeast 538 619 35,000  Climbing FlightAware
01:58PM 53.0311 -7.5930 123° Southeast 464 534 33,500 -2,460 Descending FlightAware UK
01:58PM 53.0070 -7.5306 123° Southeast 462 532 33,500 3,420 Level FlightAware UK
01:59PM 53.0000 -7.5130 123° Southeast 536 617 35,000  Climbing FlightAware
01:59PM 52.9750 -7.4476 123° Southeast 460 529 33,500 -2,700 Descending FlightAware UK
01:59PM 52.9509 -7.3856 123° Southeast 460 529 33,500 3,720 Level FlightAware UK
01:59PM 52.9480 -7.3790 123° Southeast 534 615 35,000  Climbing FlightAware
02:00PM 52.9190 -7.3032 123° Southeast 458 527 33,500 -2,520 Descending FlightAware UK
02:00PM 52.8948 -7.2417 123° Southeast 458 527 33,500 4,080 Level FlightAware UK
02:00PM 52.8940 -7.2390 123° Southeast 533 613 35,000  Climbing FlightAware
02:00PM 52.8623 -7.1591 123° Southeast 458 527 33,500 -2,400 Descending FlightAware UK
02:01PM 52.8382 -7.0977 123° Southeast 458 527 33,500 3,600 Level FlightAware UK
02:01PM 52.8330 -7.0850 123° Southeast 532 612 35,000  Climbing FlightAware
02:01PM 52.8060 -7.0161 123° Southeast 458 527 33,500 -2,580 Descending FlightAware UK
02:01PM 52.7820 -6.9549 123° Southeast 456 525 33,500 3,900 Level FlightAware UK
02:01PM 52.7790 -6.9480 123° Southeast 531 611 35,000  Climbing FlightAware
02:02PM 52.7499 -6.8735 123° Southeast 456 525 33,500  Descending FlightAware UK
02:02PM 52.7270 -6.8170 123° Southeast 530 610 35,000  Climbing FlightAware
02:02PM 52.7014 -6.7521 123° Southeast 458 527 33,500 -2,760 Descending FlightAware UK
02:03PM 52.6772 -6.6915 123° Southeast 458 527 33,500 3,000 Level FlightAware UK
02:03PM 52.6630 -6.6560 123° Southeast 529 609 35,000  Climbing FlightAware
02:03PM 52.6368 -6.5907 123° Southeast 460 529 33,500 -2,520 Descending FlightAware UK
02:03PM 52.6126 -6.5304 123° Southeast 460 529 33,500 4,080 Level FlightAware UK
02:03PM 52.6090 -6.5210 123° Southeast 528 608 35,000  Climbing FlightAware
02:04PM 52.5803 -6.4502 123° Southeast 458 527 33,500 -2,400 Descending FlightAware UK
02:04PM 52.5561 -6.3901 123° Southeast 456 525 33,500 4,500 Level FlightAware UK
02:04PM 52.5570 -6.3930 123° Southeast 528 608 35,000  Climbing FlightAware
02:04PM 52.5317 -6.3301 123° Southeast 458 527 33,500 -2,700 Descending FlightAware UK
02:05PM 52.5073 -6.2702 124° Southeast 456 525 33,500 3,060 Level FlightAware UK
02:05PM 52.4940 -6.2390 124° Southeast 529 609 35,000  Climbing FlightAware
02:05PM 52.4666 -6.1703 124° Southeast 456 525 33,500 -2,460 Descending FlightAware UK
02:05PM 52.4421 -6.1105 124° Southeast 456 525 33,500 4,260 Level FlightAware UK
02:05PM 52.4400 -6.1050 124° Southeast 528 608 35,000  Climbing FlightAware
02:06PM 52.4176 -6.0508 124° Southeast 456 525 33,500 -2,760 Descending FlightAware UK
02:06PM 52.3931 -5.9912 124° Southeast 458 527 33,500 3,600 Level FlightAware UK
02:06PM 52.3850 -5.9720 124° Southeast 527 606 35,000  Climbing FlightAware
02:06PM 52.3602 -5.9110 124° Southeast 460 529 33,500 -2,580 Descending FlightAware UK
02:07PM 52.3357 -5.8517 124° Southeast 460 529 33,500 3,180 Level FlightAware UK
02:07PM 52.3250 -5.8270 124° Southeast 526 605 35,000  Climbing FlightAware
02:07PM 52.2947 -5.7532 124° Southeast 462 532 33,500 -2,400 Descending FlightAware UK
02:08PM 52.2726 -5.6921 121° Southeast 462 532 33,500 4,500 Level FlightAware UK
02:08PM 52.2740 -5.6940 121° Southeast 526 605 35,000  Climbing FlightAware
02:08PM 52.2524 -5.6288 121° Southeast 462 532 33,500 -2,700 Descending FlightAware UK
02:08PM 52.2350 -5.5635 114° Southeast 462 532 33,500 3,060 Level FlightAware UK
02:08PM 52.2270 -5.5280 114° Southeast 524 603 35,000  Climbing FlightAware
02:09PM 52.2097 -5.4526 114° Southeast 462 532 33,500 -2,460 Descending FlightAware UK
02:09PM 52.1943 -5.3862 111° Southeast 460 529 33,500 4,260 Level FlightAware UK
02:09PM 52.1930 -5.3800 111° Southeast 523 602 35,000  Climbing FlightAware
02:09PM 52.1790 -5.3200 111° Southeast 462 532 33,500 -2,760 Descending FlightAware UK
02:10PM 52.1638 -5.2538 111° Southeast 460 529 33,500 3,000 Level FlightAware UK
02:10PM 52.1550 -5.2140 111° Southeast 520 598 35,000  Climbing FlightAware
02:10PM 52.1384 -5.1438 111° Southeast 464 534 33,500 -2,520 Descending FlightAware UK
02:10PM 52.1231 -5.0780 111° Southeast 460 529 33,500 4,080 Level FlightAware UK
02:10PM 52.1220 -5.0750 111° Southeast 519 597 35,000  Climbing FlightAware
02:11PM 52.1027 -4.9903 111° Southeast 464 534 33,500 -2,400 Descending FlightAware UK
02:11PM 52.0874 -4.9248 111° Southeast 462 532 33,500 4,500 Level FlightAware UK
02:11PM 52.0880 -4.9280 111° Southeast 517 595 35,000  Climbing FlightAware
02:11PM 52.0720 -4.8595 111° Southeast 462 532 33,500 -2,700 Descending FlightAware UK
02:12PM 52.0565 -4.7937 111° Southeast 462 532 33,500 3,060 Level FlightAware UK
02:12PM 52.0490 -4.7600 111° Southeast 515 593 35,000  Climbing FlightAware
02:12PM 52.0309 -4.6856 111° Southeast 462 532 33,500  Descending FlightAware UK
02:12PM 52.0200 -4.6400 111° Southeast 514 592 35,000  Climbing FlightAware
02:12PM 52.0156 -4.6208 111° Southeast 460 529 33,500  Descending FlightAware UK
02:13PM 52.0041 -4.5724 111° Southeast 513 590 35,000  Climbing FlightAware ADS-B
02:13PM 51.9899 -4.5133 111° Southeast 460 529 33,500  Descending FlightAware UK
02:13PM 51.9770 -4.4590 111° Southeast 511 588 35,000 3,600 Climbing FlightAware
02:13PM 51.9692 -4.4268 111° Southeast 512 589 35,000 -3,780 Level FlightAware ADS-B
02:14PM 51.9540 -4.3634 111° Southeast 456 525 33,500  Descending FlightAware UK
02:14PM 51.9430 -4.3176 111° Southeast 511 588 35,000  Climbing FlightAware ADS-B
02:14PM 51.9284 -4.2568 111° Southeast 458 527 33,500 -2,700 Descending FlightAware UK
02:14PM 51.9130 -4.1931 111° Southeast 458 527 33,500 3,600 Level FlightAware UK
02:15PM 51.9077 -4.1712 111° Southeast 509 586 35,000  Climbing FlightAware ADS-B
02:15PM 51.8922 -4.1075 111° Southeast 456 525 33,500 -2,520 Descending FlightAware UK
02:15PM 51.8767 -4.0441 112° Southeast 456 525 33,500 3,720 Level FlightAware UK
02:15PM 51.8711 -4.0211 112° Southeast 508 585 35,000  Climbing FlightAware ADS-B
02:16PM 51.8561 -3.9595 112° Southeast 458 527 33,500  Descending FlightAware UK
02:16PM 51.8447 -3.9133 112° Southeast 506 582 35,000  Climbing FlightAware ADS-B
02:16PM 51.8304 -3.8548 112° Southeast 458 527 33,500  Descending FlightAware UK
02:16PM 51.8137 -3.7871 112° Southeast 505 581 35,000  Climbing FlightAware ADS-B
02:17PM 51.7991 -3.7280 112° Southeast 458 527 33,500  Descending FlightAware UK
02:17PM 51.7840 -3.6671 112° Southeast 506 582 35,000  Climbing FlightAware ADS-B
02:17PM 51.7678 -3.6021 112° Southeast 458 527 33,500  Descending FlightAware UK
02:18PM 51.7497 -3.5294 112° Southeast 504 580 35,000  Climbing FlightAware ADS-B
02:18PM 51.7363 -3.4760 112° Southeast 460 529 33,500  Descending FlightAware UK
02:18PM 51.7195 -3.4090 112° Southeast 503 579 35,000  Climbing FlightAware ADS-B
02:18PM 51.7052 -3.3518 112° Southeast 468 539 33,500  Descending FlightAware UK
02:19PM 51.6898 -3.2914 112° Southeast 499 574 35,000  Climbing FlightAware ADS-B
02:19PM 51.6739 -3.2279 112° Southeast 468 539 33,500  Descending FlightAware UK
02:19PM 51.6632 -3.1861 112° Southeast 496 571 35,000  Climbing FlightAware ADS-B
02:20PM 51.6480 -3.1261 112° Southeast 470 541 33,500  Descending FlightAware UK
02:20PM 51.6342 -3.0716 112° Southeast 491 565 35,000  Climbing FlightAware ADS-B
02:20PM 51.6170 -3.0036 112° Southeast 472 543 33,500  Descending FlightAware UK
02:20PM 51.6077 -2.9684 112° Southeast 487 560 35,000  Climbing FlightAware ADS-B
02:21PM 51.5909 -2.9033 112° Southeast 454 522 33,500  Descending FlightAware UK
02:21PM 51.5828 -2.8713 112° Southeast 487 560 35,000 2,040 Climbing FlightAware ADS-B
02:21PM 51.5547 -2.7622 112° Southeast 487 560 35,000 -1,800 Level FlightAware ADS-B
02:22PM 51.5395 -2.7029 112° Southeast 454 522 33,500  Descending FlightAware UK
02:22PM 51.5282 -2.6593 112° Southeast 486 559 35,000  Climbing FlightAware ADS-B
02:22PM 51.5137 -2.6033 112° Southeast 454 522 33,500  Descending FlightAware UK
02:22PM 51.5019 -2.5580 112° Southeast 485 558 35,000  Climbing FlightAware ADS-B
02:23PM 51.4877 -2.5030 112° Southeast 452 520 33,500  Descending FlightAware UK
02:23PM 51.4758 -2.4580 112° Southeast 486 559 35,000  Climbing FlightAware ADS-B
02:23PM 51.4617 -2.4042 112° Southeast 458 527 33,500  Descending FlightAware UK
02:23PM 51.4481 -2.3527 112° Southeast 485 558 35,000 1,920 Climbing FlightAware ADS-B
02:24PM 51.4218 -2.2534 113° Southeast 485 558 35,000 -2,040 Level FlightAware ADS-B
02:24PM 51.4090 -2.2046 113° Southeast 456 525 33,500 180 Descending FlightAware UK
02:24PM 51.3952 -2.1528 113° Southeast 485 558 35,100 1,920 Climbing FlightAware ADS-B
02:25PM 51.3687 -2.0536 113° Southeast 483 556 35,000 -1,920 Descending FlightAware ADS-B
02:25PM 51.3511 -1.9875 113° Southeast 460 529 33,500 -420 Descending FlightAware UK
02:25PM 51.3423 -1.9546 113° Southeast 485 558 34,800 1,200 Climbing FlightAware ADS-B
02:26PM 51.3156 -1.8552 113° Southeast 486 559 34,300 -900 Descending FlightAware ADS-B
02:26PM 51.2890 -1.7562 113° Southeast 485 558 33,900 -2,760 Descending FlightAware ADS-B
02:27PM 51.2713 -1.6908 113° Southeast 464 534 32,000 -1,200 Descending FlightAware UK
02:27PM 51.2616 -1.6552 113° Southeast 482 555 33,300 -1,020 Climbing FlightAware ADS-B
02:27PM 51.2446 -1.5929 113° Southeast 458 527 31,500 -600 Descending FlightAware UK
02:27PM 51.2344 -1.5552 113° Southeast 480 552 33,000 2,100 Climbing FlightAware ADS-B
02:28PM 51.2077 -1.4574 114° Southeast 481 554 33,000  Level FlightAware ADS-B
02:28PM 51.1806 -1.3584 114° Southeast 484 557 33,000 -1,920 Level FlightAware ADS-B
02:29PM 51.1648 -1.3003 114° Southeast 460 529 31,500  Descending FlightAware UK
02:29PM 51.1533 -1.2589 114° Southeast 488 562 33,000  Climbing FlightAware ADS-B
02:29PM 51.1375 -1.2017 114° Southeast 466 536 31,500  Descending FlightAware UK
02:29PM 51.1256 -1.1587 114° Southeast 486 559 33,000  Climbing FlightAware ADS-B
02:30PM 51.1102 -1.1034 114° Southeast 462 532 31,500  Descending FlightAware UK
02:30PM 51.0967 -1.0554 114° Southeast 485 558 33,000  Climbing FlightAware ADS-B
02:30PM 51.0830 -1.0059 114° Southeast 462 532 31,500  Descending FlightAware UK
02:30PM 51.0693 -0.9566 114° Southeast 486 559 33,000  Climbing FlightAware ADS-B
02:31PM 51.0557 -0.9082 114° Southeast 466 536 31,500  Descending FlightAware UK
02:31PM 51.0416 -0.8581 114° Southeast 487 560 33,000  Climbing FlightAware ADS-B
02:31PM 51.0225 -0.7902 114° Southeast 468 539 31,500  Descending FlightAware UK
02:32PM 51.0137 -0.7587 114° Southeast 487 560 33,000  Climbing FlightAware ADS-B
02:32PM 50.9949 -0.6925 114° Southeast 466 536 31,500  Descending FlightAware UK
02:32PM 50.9858 -0.6602 114° Southeast 487 560 33,000 2,220 Climbing FlightAware ADS-B
02:33PM 50.9581 -0.5624 114° Southeast 487 560 33,000  Level FlightAware ADS-B
02:33PM 50.9301 -0.4640 114° Southeast 486 559 33,000 -1,800 Level FlightAware ADS-B
02:33PM 50.9118 -0.3997 114° Southeast 464 534 31,500  Descending FlightAware UK
02:34PM 50.9022 -0.3665 114° Southeast 486 559 33,000 2,160 Climbing FlightAware ADS-B
02:34PM 50.8739 -0.2681 114° Southeast 486 559 33,000 -1,800 Level FlightAware ADS-B
02:34PM 50.8558 -0.2052 114° Southeast 466 536 31,500  Descending FlightAware UK
02:35PM 50.8450 -0.1677 114° Southeast 486 559 33,000 2,100 Climbing FlightAware ADS-B
02:35PM 50.8163 -0.0688 115° Southeast 485 558 33,000  Level FlightAware ADS-B
02:36PM 50.7861 0.0350 115° Southeast 484 557 33,000  Level FlightAware ADS-B
02:36PM 50.7722 0.0780 117° Southeast 486 559 33,000  Level FlightAware ADS-B
02:36PM 50.7616 0.1032 124° Southeast 489 563 33,000  Level FlightAware ADS-B
02:36PM 50.7395 0.1449 130° Southeast 492 566 33,000  Level FlightAware ADS-B
02:36PM 50.7196 0.1744 137° Southeast 493 567 33,000 -2,820 Level FlightAware ADS-B
02:37PM 50.6835 0.2202 137° Southeast 468 539 31,500 -240 Descending FlightAware UK
02:37PM 50.6649 0.2451 137° Southeast 494 568 32,900 420 Climbing FlightAware ADS-B
02:37PM 50.6095 0.3158 141° Southeast 486 559 31,800 -4,320 Descending FlightAware ADS-B
02:38PM 50.5778 0.3561 141° Southeast 472 543 29,400 -2,820 Descending FlightAware UK
02:38PM 50.5531 0.3873 141° Southeast 486 559 30,300 -2,640 Climbing FlightAware ADS-B
02:38PM 50.5250 0.4227 141° Southeast 458 527 28,100 -2,340 Descending FlightAware UK
02:39PM 50.4998 0.4548 141° Southeast 476 548 29,100 -2,220 Climbing FlightAware ADS-B
02:39PM 50.4742 0.4870 141° Southeast 444 511 27,000 -3,120 Descending FlightAware UK
02:39PM 50.4474 0.5209 141° Southeast 474 545 27,500 -900 Climbing FlightAware ADS-B
02:40PM 50.3926 0.5899 141° Southeast 480 552 26,300 -3,420 Descending FlightAware ADS-B
02:40PM 50.3599 0.6311 141° Southeast 452 520 24,600 -360 Descending FlightAware UK
02:40PM 50.3339 0.6638 141° Southeast 476 548 26,100 -180 Climbing FlightAware ADS-B
02:40PM 50.2979 0.7084 141° Southeast 452 520 24,500 -2,520 Descending FlightAware UK
02:41PM 50.2669 0.7474 141° Southeast 452 520 24,500  Level FlightAware UK
02:41PM 50.2358 0.7864 141° Southeast 452 520 24,500 3,420 Level FlightAware UK
02:41PM 50.2260 0.7990 141° Southeast 480 552 26,000  Climbing FlightAware
02:42PM 50.1732 0.8647 141° Southeast 458 527 24,500  Descending FlightAware UK
02:42PM 50.1550 0.8880 141° Southeast 481 554 26,000  Climbing FlightAware
02:42PM 50.1205 0.9303 141° Southeast 460 529 24,500 -2,520 Descending FlightAware UK
02:42PM 50.0872 0.9628 148° Southeast 448 516 24,500 3,300 Level FlightAware UK
02:43PM 50.0790 0.9720 148° Southeast 472 543 26,000  Climbing FlightAware
02:43PM 50.0431 1.0071 148° Southeast 446 513 24,500 -1,260 Descending FlightAware UK
02:43PM 49.9993 1.0496 148° Southeast 463 533 25,200 -2,040 Climbing FlightAware ADS-B
02:44PM 49.9667 1.0815 148° Southeast 432 497 23,100 -4,500 Descending FlightAware UK
02:44PM 49.9361 1.1119 147° Southeast 430 495 22,500 2,040 Descending FlightAware UK
02:44PM 49.9330 1.1160 147° Southeast 448 516 23,900 3,180 Climbing FlightAware
02:44PM 49.9128 1.1362 147° Southeast 449 517 23,200 -6,960 Descending FlightAware ADS-B
02:44PM 49.8836 1.1658 147° Southeast 432 497 21,000 -2,160 Descending FlightAware UK
02:45PM 49.8600 1.1901 147° Southeast 440 506 22,100 -2,220 Climbing FlightAware ADS-B
02:45PM 49.8321 1.2185 147° Southeast 426 490 19,900 -2,220 Descending FlightAware UK
02:45PM 49.8084 1.2427 147° Southeast 430 495 21,000 -2,040 Climbing FlightAware ADS-B
02:45PM 49.7726 1.2791 147° Southeast 416 479 18,700 -2,160 Descending FlightAware UK
02:46PM 49.7586 1.2931 147° Southeast 419 482 19,900 -2,040 Climbing FlightAware ADS-B
02:46PM 49.7338 1.3182 147° Southeast 410 472 17,900 -2,040 Descending FlightAware UK
02:46PM 49.7101 1.3422 147° Southeast 409 471 18,900 -2,220 Climbing FlightAware ADS-B
02:46PM 49.6866 1.3658 147° Southeast 406 467 16,800 -2,160 Descending FlightAware UK
02:47PM 49.6626 1.3897 147° Southeast 400 460 17,800 -2,220 Climbing FlightAware ADS-B
02:47PM 49.6305 1.4218 147° Southeast 394 453 15,500 -2,160 Descending FlightAware UK
02:47PM 49.6100 1.4424 147° Southeast 393 452 16,600 -2,220 Climbing FlightAware ADS-B
02:47PM 49.5852 1.4674 147° Southeast 388 447 14,400 -2,220 Descending FlightAware UK
02:48PM 49.5596 1.4925 147° Southeast 385 443 15,400 -2,040 Climbing FlightAware ADS-B
02:48PM 49.5314 1.5203 147° Southeast 380 437 13,200 -2,160 Descending FlightAware UK
02:48PM 49.5147 1.5373 147° Southeast 378 435 14,300 -2,220 Climbing FlightAware ADS-B
02:49PM 49.4873 1.5643 147° Southeast 376 433 12,100 -2,220 Descending FlightAware UK
02:49PM 49.4703 1.5811 147° Southeast 373 429 13,200 -1,200 Climbing FlightAware ADS-B
02:49PM 49.4435 1.6076 147° Southeast 366 421 11,500 -3,360 Descending FlightAware UK
02:49PM 49.4192 1.6318 147° Southeast 348 400 11,200 1,920 Descending FlightAware UK
02:50PM 49.4022 1.6485 147° Southeast 356 410 12,500 -1,020 Climbing FlightAware ADS-B
02:50PM 49.3803 1.6702 147° Southeast 334 384 10,700 -1,020 Descending FlightAware UK
02:50PM 49.3632 1.6868 147° Southeast 321 369 12,000 -420 Climbing FlightAware ADS-B
02:50PM 49.3429 1.7069 147° Southeast 324 373 10,500  Descending FlightAware UK
02:51PM 49.3254 1.7243 147° Southeast 323 372 12,000 4,080 Climbing FlightAware ADS-B
02:51PM 49.3160 1.7340 146° Southeast 323 372 12,000  Level FlightAware ADS-B
02:51PM 49.3107 1.7405 141° Southeast 324 373 12,000  Level FlightAware ADS-B
02:51PM 49.3070 1.7462 135° Southeast 325 374 12,000  Level FlightAware ADS-B
02:51PM 49.3031 1.7533 130° Southeast 326 375 12,000  Level FlightAware ADS-B
02:51PM 49.2902 1.8024 112° Southeast 328 377 12,000  Level FlightAware ADS-B
02:51PM 49.2896 1.8095 97° East 330 380 12,000 -4,320 Level FlightAware ADS-B
02:52PM 49.2877 1.8529 97° East 332 382 10,500  Descending FlightAware UK
02:52PM 49.2861 1.8692 97° East 335 386 12,000  Climbing FlightAware ADS-B
02:52PM 49.2843 1.9088 97° East 330 380 10,500  Descending FlightAware UK
02:52PM 49.2831 1.9397 97° East 331 381 12,000  Climbing FlightAware ADS-B
02:53PM 49.2806 1.9780 97° East 332 382 10,500  Descending FlightAware UK
02:53PM 49.2802 2.0094 97° East 329 379 12,000  Climbing FlightAware ADS-B
02:53PM 49.2785 2.0490 97° East 326 375 10,500  Descending FlightAware UK
02:53PM 49.2770 2.0806 97° East 311 358 12,000  Climbing FlightAware ADS-B
02:54PM 49.2763 2.1189 97° East 300 345 10,500  Descending FlightAware UK
02:54PM 49.2740 2.1461 97° East 300 345 12,000  Climbing FlightAware ADS-B
02:54PM 49.2729 2.1796 97° East 294 338 10,500  Descending FlightAware UK
02:54PM 49.2705 2.2120 97° East 304 350 12,000  Climbing FlightAware ADS-B
02:55PM 49.2687 2.2569 97° East 296 341 10,500  Descending FlightAware UK
02:55PM 49.2670 2.2880 97° East 303 349 12,000 3,900 Climbing FlightAware
02:55PM 49.2659 2.3049 96° East 305 351 12,000  Level FlightAware ADS-B
02:55PM 49.2631 2.3587 95° East 309 356 12,000 -2,100 Level FlightAware ADS-B
02:56PM 49.2612 2.3983 95° East 298 343 10,500  Descending FlightAware UK
02:56PM 49.2601 2.4209 95° East 308 354 12,000  Climbing FlightAware ADS-B
02:56PM 49.2573 2.4629 95° East 286 329 10,500 -420 Descending FlightAware UK
02:56PM 49.2570 2.4839 95° East 290 334 11,800 1,980 Climbing FlightAware ADS-B
02:57PM 49.2552 2.5114 96° East 294 338 11,300 -5,280 Descending FlightAware ADS-B
02:57PM 49.2541 2.5520 96° East 1 1 9,100 -2,640 Descending FlightAware UK
02:57PM 49.2486 2.5728 96° East 288 331 10,000 600 Climbing FlightAware ADS-B
02:57PM 49.2451 2.6036 100° East 283 326 9,400 -2,280 Descending FlightAware ADS-B
02:58PM 49.2432 2.6197 100° East 282 325 9,100 -2,520 Descending FlightAware ADS-B
02:58PM 49.2394 2.6512 100° East 280 322 8,400 -2,640 Descending FlightAware ADS-B
02:58PM 49.2358 2.6814 100° East 283 326 7,700 -1,860 Descending FlightAware ADS-B
02:59PM 49.2295 2.7343 100° East 275 316 7,100 -1,080 Descending FlightAware ADS-B
02:59PM 49.2162 2.8241 103° East 245 282 6,300 -1,020 Descending FlightAware ADS-B
03:00PM 49.2078 2.8460 120° Southeast 239 275 6,000 -900 Descending FlightAware ADS-B
03:00PM 49.2051 2.8523 124° Southeast 239 275 6,000 -780 Level FlightAware ADS-B
03:00PM 49.2030 2.8563 128° Southeast 238 274 5,900 -1,020 Descending FlightAware ADS-B
03:00PM 49.2007 2.8602 132° Southeast 238 274 5,900 -720 Level FlightAware ADS-B
03:00PM 49.1898 2.8757 137° Southeast 237 273 5,700 -900 Descending FlightAware ADS-B
03:00PM 49.1790 2.8908 137° Southeast 237 273 5,500 -840 Descending FlightAware ADS-B
03:00PM 49.1717 2.9011 137° Southeast 237 273 5,400 -480 Descending FlightAware ADS-B
03:01PM 49.1681 2.9055 141° Southeast 237 273 5,400 -900 Level FlightAware ADS-B
03:01PM 49.1651 2.9083 149° Southeast 237 273 5,300 -1,020 Descending FlightAware ADS-B
03:01PM 49.1621 2.9104 155° Southeast 236 272 5,300 -720 Level FlightAware ADS-B
03:01PM 49.1560 2.9130 165° South 234 269 5,200 -600 Descending FlightAware ADS-B
03:01PM 49.1520 2.9137 173° South 234 269 5,200 -480 Level FlightAware ADS-B
03:01PM 49.1409 2.9144 178° South 234 269 5,100 -720 Descending FlightAware ADS-B
03:01PM 49.1242 2.9156 177° South 234 269 4,900 -600 Descending FlightAware ADS-B
03:01PM 49.1072 2.9169 177° South 234 269 4,800 -600 Descending FlightAware ADS-B
03:02PM 49.0911 2.9184 176° South 231 266 4,600 -660 Descending FlightAware ADS-B
03:02PM 49.0583 2.9219 176° South 228 262 4,300 -600 Descending FlightAware ADS-B
03:03PM 49.0393 2.9233 177° South 192 221 4,100 -600 Descending FlightAware ADS-B
03:03PM 49.0301 2.9184 199° South 186 214 4,000 -300 Descending FlightAware ADS-B
03:03PM 49.0238 2.9080 227° Southwest 184 212 4,000  Level FlightAware ADS-B
03:03PM 49.0202 2.8994 237° Southwest 185 213 4,000 -240 Level FlightAware ADS-B
03:03PM 49.0115 2.8785 238° Southwest 183 211 3,900 -300 Descending FlightAware ADS-B
03:03PM 49.0097 2.8730 243° Southwest 184 212 3,900 -780 Level FlightAware ADS-B
03:04PM 49.0087 2.8686 251° West 185 213 3,800 -900 Descending FlightAware ADS-B
03:04PM 49.0081 2.8640 259° West 186 214 3,800 -780 Level FlightAware ADS-B
03:04PM 49.0077 2.8581 264° West 184 212 3,700 -1,380 Descending FlightAware ADS-B
03:04PM 49.0075 2.8514 267° West 184 212 3,600 -720 Descending FlightAware ADS-B
03:04PM 49.0074 2.8465 268° West 183 211 3,600 -1,020 Level FlightAware ADS-B
03:04PM 49.0074 2.8361 270° West 182 209 3,400 -1,140 Descending FlightAware ADS-B
03:04PM 49.0068 2.8258 265° West 181 208 3,300 -780 Descending FlightAware ADS-B
03:04PM 49.0061 2.8162 264° West 179 206 3,200 -960 Descending FlightAware ADS-B
03:04PM 49.0053 2.8026 265° West 179 206 3,000 -1,200 Descending FlightAware ADS-B
03:05PM 49.0045 2.7850 266° West 178 205 2,700 -1,020 Descending FlightAware ADS-B
03:05PM 49.0034 2.7651 265° West 178 205 2,500 -960 Descending FlightAware ADS-B
03:05PM 49.0020 2.7374 266° West 178 205 2,100 -1,080 Descending FlightAware ADS-B
03:06PM 49.0009 2.7168 265° West 165 190 1,800 -900 Descending FlightAware ADS-B
03:06PM 49.0003 2.7050 266° West 154 177 1,700 -780 Descending FlightAware ADS-B
03:06PM 48.9992 2.6843 265° West 137 158 1,400 -960 Descending FlightAware ADS-B
03:06PM 48.9986 2.6720 266° West 138 159 1,200 -840 Descending FlightAware ADS-B
03:06PM 48.9980 2.6632 264° West 138 159 1,100 -840 Descending FlightAware ADS-B
03:07PM 48.9978 2.6570 267° West 138 159 1,000 -840 Descending FlightAware ADS-B
03:07PM 48.9973 2.6486 265° West 140 161 900 -780 Descending FlightAware ADS-B
03:07PM 48.9966 2.6338 266° West 139 160 700 -840 Descending FlightAware ADS-B
03:07PM 48.9962 2.6262 265° West 138 159 600 -660 Descending FlightAware ADS-B
03:07PM 48.9955 2.6156 264° West 137 158 500 -720 Descending FlightAware ADS-B
03:07PM 48.9952 2.6086 266° West 136 157 400 -900 Descending FlightAware ADS-B